sensor_id;sensor_type;location;lat;lon;timestamp;pressure;altitude;pressure_sealevel;temperature;humidity
48848;BME280;36611;51.638;5.784;2023-03-01T00:01:05;103068.56;;;20.97;28.89
48848;BME280;36611;51.638;5.784;2023-03-01T00:03:33;103061.13;;;20.99;28.89
48848;BME280;36611;51.638;5.784;2023-03-01T00:06:02;103064.97;;;20.97;29.09
48848;BME280;36611;51.638;5.784;2023-03-01T00:08:29;103057.63;;;20.97;28.84
48848;BME280;36611;51.638;5.784;2023-03-01T00:11:10;103057.13;;;20.92;29.26
48848;BME280;36611;51.638;5.784;2023-03-01T00:13:38;103056.13;;;20.93;29.28
48848;BME280;36611;51.638;5.784;2023-03-01T00:16:08;103064.47;;;20.91;29.19
48848;BME280;36611;51.638;5.784;2023-03-01T00:18:35;103066.94;;;20.94;29.38
48848;BME280;36611;51.638;5.784;2023-03-01T00:21:03;103065.19;;;20.93;28.89
48848;BME280;36611;51.638;5.784;2023-03-01T00:23:30;103065.19;;;20.93;29.31
48848;BME280;36611;51.638;5.784;2023-03-01T00:25:56;103059.00;;;20.91;29.23
48848;BME280;36611;51.638;5.784;2023-03-01T00:28:23;103052.53;;;20.92;29.31
48848;BME280;36611;51.638;5.784;2023-03-01T00:30:50;103049.19;;;20.89;29.54
48848;BME280;36611;51.638;5.784;2023-03-01T00:33:17;103047.31;;;20.89;29.47
48848;BME280;36611;51.638;5.784;2023-03-01T00:35:45;103047.44;;;20.88;29.16
48848;BME280;36611;51.638;5.784;2023-03-01T00:38:11;103047.56;;;20.86;29.58
48848;BME280;36611;51.638;5.784;2023-03-01T00:40:39;103049.31;;;20.87;29.46
48848;BME280;36611;51.638;5.784;2023-03-01T00:43:06;103047.31;;;20.89;29.07
48848;BME280;36611;51.638;5.784;2023-03-01T00:45:33;103034.66;;;20.88;29.41
48848;BME280;36611;51.638;5.784;2023-03-01T00:48:00;103040.00;;;20.90;29.38
48848;BME280;36611;51.638;5.784;2023-03-01T00:50:27;103041.00;;;20.89;29.34
48848;BME280;36611;51.638;5.784;2023-03-01T00:52:54;103033.03;;;20.86;28.94
48848;BME280;36611;51.638;5.784;2023-03-01T00:55:22;103027.56;;;20.86;28.98
48848;BME280;36611;51.638;5.784;2023-03-01T00:57:48;103032.91;;;20.87;29.21
48848;BME280;36611;51.638;5.784;2023-03-01T01:00:15;103031.19;;;20.86;29.28
48848;BME280;36611;51.638;5.784;2023-03-01T01:02:42;103034.03;;;20.85;29.09
48848;BME280;36611;51.638;5.784;2023-03-01T01:05:09;103036.75;;;20.85;29.24
48848;BME280;36611;51.638;5.784;2023-03-01T01:07:35;103035.16;;;20.82;29.24
48848;BME280;36611;51.638;5.784;2023-03-01T01:10:03;103026.97;;;20.82;28.97
48848;BME280;36611;51.638;5.784;2023-03-01T01:12:30;103025.22;;;20.81;29.36
48848;BME280;36611;51.638;5.784;2023-03-01T01:14:58;103018.22;;;20.77;29.07
48848;BME280;36611;51.638;5.784;2023-03-01T01:17:25;103010.91;;;20.78;29.45
48848;BME280;36611;51.638;5.784;2023-03-01T01:19:51;103008.41;;;20.75;28.96
48848;BME280;36611;51.638;5.784;2023-03-01T01:22:18;102998.63;;;20.72;29.42
48848;BME280;36611;51.638;5.784;2023-03-01T01:24:44;102998.63;;;20.72;29.29
48848;BME280;36611;51.638;5.784;2023-03-01T01:27:11;102994.28;;;20.70;29.02
48848;BME280;36611;51.638;5.784;2023-03-01T01:29:38;102988.81;;;20.70;29.49
48848;BME280;36611;51.638;5.784;2023-03-01T01:32:04;102991.53;;;20.70;29.42
48848;BME280;36611;51.638;5.784;2023-03-01T01:34:31;102988.69;;;20.71;29.20
48848;BME280;36611;51.638;5.784;2023-03-01T01:36:58;102993.28;;;20.71;29.03
48848;BME280;36611;51.638;5.784;2023-03-01T01:39:29;102989.81;;;20.69;29.30
48848;BME280;36611;51.638;5.784;2023-03-01T01:41:56;102984.34;;;20.69;29.12
48848;BME280;36611;51.638;5.784;2023-03-01T01:44:25;102978.25;;;20.65;29.40
48848;BME280;36611;51.638;5.784;2023-03-01T01:49:38;102973.28;;;20.59;29.46
48848;BME280;36611;51.638;5.784;2023-03-01T01:57:24;102966.84;;;20.60;29.25
48848;BME280;36611;51.638;5.784;2023-03-01T01:59:53;102967.09;;;20.57;29.16
48848;BME280;36611;51.638;5.784;2023-03-01T02:02:21;102966.34;;;20.55;29.26
48848;BME280;36611;51.638;5.784;2023-03-01T02:04:54;102966.34;;;20.55;29.31
48848;BME280;36611;51.638;5.784;2023-03-01T02:07:25;102966.56;;;20.52;29.63
48848;BME280;36611;51.638;5.784;2023-03-01T02:09:52;102972.03;;;20.52;29.61
48848;BME280;36611;51.638;5.784;2023-03-01T02:12:23;102968.06;;;20.56;29.37
48848;BME280;36611;51.638;5.784;2023-03-01T02:14:50;102975.75;;;20.51;29.64
48848;BME280;36611;51.638;5.784;2023-03-01T02:17:17;102975.38;;;20.55;29.15
48848;BME280;36611;51.638;5.784;2023-03-01T02:22:28;102977.88;;;20.47;29.62
48848;BME280;36611;51.638;5.784;2023-03-01T02:25:38;102971.41;;;20.48;29.61
48848;BME280;36611;51.638;5.784;2023-03-01T02:30:43;102961.13;;;20.52;29.49
48848;BME280;36611;51.638;5.784;2023-03-01T02:33:31;102964.34;;;20.57;29.54
48848;BME280;36611;51.638;5.784;2023-03-01T02:36:19;102966.22;;;20.68;29.64
48848;BME280;36611;51.638;5.784;2023-03-01T02:38:47;102961.25;;;20.73;29.51
48848;BME280;36611;51.638;5.784;2023-03-01T02:41:15;102960.38;;;20.72;29.52
48848;BME280;36611;51.638;5.784;2023-03-01T02:43:42;102950.69;;;20.68;29.29
48848;BME280;36611;51.638;5.784;2023-03-01T02:46:22;102954.06;;;20.60;29.44
48848;BME280;36611;51.638;5.784;2023-03-01T02:48:54;102947.97;;;20.57;29.10
48848;BME280;36611;51.638;5.784;2023-03-01T02:51:46;102949.34;;;20.51;29.49
48848;BME280;36611;51.638;5.784;2023-03-01T02:54:36;102947.47;;;20.52;29.43
48848;BME280;36611;51.638;5.784;2023-03-01T02:57:06;102952.69;;;20.44;29.33
48848;BME280;36611;51.638;5.784;2023-03-01T02:59:35;102952.91;;;20.41;29.36
48848;BME280;36611;51.638;5.784;2023-03-01T03:02:08;102962.09;;;20.40;29.55
48848;BME280;36611;51.638;5.784;2023-03-01T03:04:46;102962.31;;;20.37;29.83
48848;BME280;36611;51.638;5.784;2023-03-01T03:07:13;102963.41;;;20.34;29.61
48848;BME280;36611;51.638;5.784;2023-03-01T03:09:40;102958.09;;;20.33;29.73
48848;BME280;36611;51.638;5.784;2023-03-01T03:12:07;102953.13;;;20.38;29.20
48848;BME280;36611;51.638;5.784;2023-03-01T03:14:34;102960.31;;;20.39;29.21
48848;BME280;36611;51.638;5.784;2023-03-01T03:17:01;102953.66;;;20.43;29.60
48848;BME280;36611;51.638;5.784;2023-03-01T03:19:32;102955.53;;;20.42;29.37
48848;BME280;36611;51.638;5.784;2023-03-01T03:21:59;102951.50;;;20.35;29.64
48848;BME280;36611;51.638;5.784;2023-03-01T03:24:25;102960.31;;;20.39;29.71
48848;BME280;36611;51.638;5.784;2023-03-01T03:26:53;102960.81;;;20.33;29.45
48848;BME280;36611;51.638;5.784;2023-03-01T03:29:20;102955.47;;;20.31;29.67
48848;BME280;36611;51.638;5.784;2023-03-01T03:31:47;102953.63;;;20.31;29.56
48848;BME280;36611;51.638;5.784;2023-03-01T03:34:13;102949.03;;;20.32;29.28
48848;BME280;36611;51.638;5.784;2023-03-01T03:36:44;102958.72;;;20.36;29.65
48848;BME280;36611;51.638;5.784;2023-03-01T03:39:11;102952.38;;;20.36;29.50
48848;BME280;36611;51.638;5.784;2023-03-01T03:41:37;102948.53;;;20.27;29.58
48848;BME280;36611;51.638;5.784;2023-03-01T03:44:04;102943.44;;;20.22;29.44
48848;BME280;36611;51.638;5.784;2023-03-01T03:46:31;102945.91;;;20.25;29.62
48848;BME280;36611;51.638;5.784;2023-03-01T03:48:58;102952.50;;;20.34;29.75
48848;BME280;36611;51.638;5.784;2023-03-01T03:51:25;102945.19;;;20.35;29.34
48848;BME280;36611;51.638;5.784;2023-03-01T03:53:51;102944.06;;;20.26;29.52
48848;BME280;36611;51.638;5.784;2023-03-01T03:56:18;102936.25;;;20.33;29.65
48848;BME280;36611;51.638;5.784;2023-03-01T03:58:45;102935.75;;;20.27;29.55
48848;BME280;36611;51.638;5.784;2023-03-01T04:01:11;102936.63;;;20.28;29.53
48848;BME280;36611;51.638;5.784;2023-03-01T04:03:38;102932.41;;;20.24;29.79
48848;BME280;36611;51.638;5.784;2023-03-01T04:06:05;102930.28;;;20.27;29.76
48848;BME280;36611;51.638;5.784;2023-03-01T04:08:36;102934.63;;;20.30;29.68
48848;BME280;36611;51.638;5.784;2023-03-01T04:11:04;102931.16;;;20.28;29.28
48848;BME280;36611;51.638;5.784;2023-03-01T04:13:54;102926.69;;;20.27;29.66
48848;BME280;36611;51.638;5.784;2023-03-01T04:16:22;102924.94;;;20.26;29.45
48848;BME280;36611;51.638;5.784;2023-03-01T04:18:48;102920.88;;;20.31;29.91
48848;BME280;36611;51.638;5.784;2023-03-01T04:21:15;102919.06;;;20.43;29.58
48848;BME280;36611;51.638;5.784;2023-03-01T04:23:42;102919.19;;;20.53;29.69
48848;BME280;36611;51.638;5.784;2023-03-01T04:26:08;102913.34;;;20.57;29.52
48848;BME280;36611;51.638;5.784;2023-03-01T04:28:37;102904.16;;;20.58;29.51
48848;BME280;36611;51.638;5.784;2023-03-01T04:31:09;102909.00;;;20.55;28.96
48848;BME280;36611;51.638;5.784;2023-03-01T04:33:50;102904.16;;;20.47;29.29
48848;BME280;36611;51.638;5.784;2023-03-01T04:36:29;102899.41;;;20.38;29.58
48848;BME280;36611;51.638;5.784;2023-03-01T04:38:57;102902.75;;;20.30;29.28
48848;BME280;36611;51.638;5.784;2023-03-01T04:41:25;102898.03;;;20.21;29.19
48848;BME280;36611;51.638;5.784;2023-03-01T04:43:52;102897.91;;;20.23;29.19
48848;BME280;36611;51.638;5.784;2023-03-01T04:46:20;102897.91;;;20.23;29.38
48848;BME280;36611;51.638;5.784;2023-03-01T04:48:47;102905.50;;;20.30;29.60
48848;BME280;36611;51.638;5.784;2023-03-01T04:51:14;102905.00;;;20.25;29.24
48848;BME280;36611;51.638;5.784;2023-03-01T04:53:42;102904.13;;;20.25;29.61
48848;BME280;36611;51.638;5.784;2023-03-01T04:56:09;102895.31;;;20.21;29.45
48848;BME280;36611;51.638;5.784;2023-03-01T04:58:36;102886.38;;;20.19;29.41
48848;BME280;36611;51.638;5.784;2023-03-01T05:01:09;102892.47;;;20.23;29.49
48848;BME280;36611;51.638;5.784;2023-03-01T05:03:49;102892.59;;;20.21;29.79
48848;BME280;36611;51.638;5.784;2023-03-01T05:06:17;102884.03;;;20.26;29.50
48848;BME280;36611;51.638;5.784;2023-03-01T05:08:44;102890.22;;;20.28;29.38
48848;BME280;36611;51.638;5.784;2023-03-01T05:11:11;102889.47;;;20.26;29.33
48848;BME280;36611;51.638;5.784;2023-03-01T05:13:39;102882.41;;;20.23;29.65
48848;BME280;36611;51.638;5.784;2023-03-01T05:16:06;102882.03;;;20.17;29.70
48848;BME280;36611;51.638;5.784;2023-03-01T05:18:38;102883.38;;;20.11;29.60
48848;BME280;36611;51.638;5.784;2023-03-01T05:21:11;102872.47;;;20.11;29.60
48848;BME280;36611;51.638;5.784;2023-03-01T05:23:38;102870.13;;;20.07;29.64
48848;BME280;36611;51.638;5.784;2023-03-01T05:26:06;102871.06;;;20.06;29.55
48848;BME280;36611;51.638;5.784;2023-03-01T05:28:41;102867.72;;;20.02;29.45
48848;BME280;36611;51.638;5.784;2023-03-01T05:31:08;102863.44;;;20.11;29.88
48848;BME280;36611;51.638;5.784;2023-03-01T05:33:37;102856.84;;;20.13;29.69
48848;BME280;36611;51.638;5.784;2023-03-01T05:36:05;102850.03;;;20.19;29.60
48848;BME280;36611;51.638;5.784;2023-03-01T05:38:32;102855.00;;;20.14;29.74
48848;BME280;36611;51.638;5.784;2023-03-01T05:40:59;102845.56;;;20.18;29.51
48848;BME280;36611;51.638;5.784;2023-03-01T05:43:26;102845.06;;;20.13;29.40
48848;BME280;36611;51.638;5.784;2023-03-01T05:45:52;102853.63;;;20.08;29.55
48848;BME280;36611;51.638;5.784;2023-03-01T05:48:19;102847.94;;;20.11;29.63
48848;BME280;36611;51.638;5.784;2023-03-01T05:50:46;102846.31;;;20.20;29.54
48848;BME280;36611;51.638;5.784;2023-03-01T05:53:19;102850.03;;;20.30;29.54
48848;BME280;36611;51.638;5.784;2023-03-01T05:55:47;102848.69;;;20.36;29.36
48848;BME280;36611;51.638;5.784;2023-03-01T05:58:17;102849.09;;;20.42;29.39
48848;BME280;36611;51.638;5.784;2023-03-01T06:00:46;102857.75;;;20.47;29.10
48848;BME280;36611;51.638;5.784;2023-03-01T06:03:15;102857.88;;;20.46;29.24
48848;BME280;36611;51.638;5.784;2023-03-01T06:05:43;102857.13;;;20.33;29.04
48848;BME280;36611;51.638;5.784;2023-03-01T06:08:11;102855.13;;;20.23;28.94
48848;BME280;36611;51.638;5.784;2023-03-01T06:10:38;102858.34;;;20.17;29.53
48848;BME280;36611;51.638;5.784;2023-03-01T06:13:05;102857.84;;;20.12;29.54
48848;BME280;36611;51.638;5.784;2023-03-01T06:15:32;102850.91;;;20.08;29.27
48848;BME280;36611;51.638;5.784;2023-03-01T06:17:58;102856.97;;;20.12;29.59
48848;BME280;36611;51.638;5.784;2023-03-01T06:20:27;102858.09;;;20.09;29.48
48848;BME280;36611;51.638;5.784;2023-03-01T06:22:54;102859.28;;;20.05;29.22
48848;BME280;36611;51.638;5.784;2023-03-01T06:25:23;102862.75;;;19.96;29.27
48848;BME280;36611;51.638;5.784;2023-03-01T06:27:50;102862.88;;;19.94;29.36
48848;BME280;36611;51.638;5.784;2023-03-01T06:30:20;102861.13;;;19.93;29.29
48848;BME280;36611;51.638;5.784;2023-03-01T06:32:48;102856.81;;;20.02;29.32
48848;BME280;36611;51.638;5.784;2023-03-01T06:35:15;102849.50;;;20.03;29.33
48848;BME280;36611;51.638;5.784;2023-03-01T06:37:47;102853.84;;;20.05;29.17
48848;BME280;36611;51.638;5.784;2023-03-01T06:40:15;102857.09;;;20.10;29.85
48848;BME280;36611;51.638;5.784;2023-03-01T06:42:44;102852.16;;;20.26;29.49
48848;BME280;36611;51.638;5.784;2023-03-01T06:45:13;102855.13;;;20.35;29.57
48848;BME280;36611;51.638;5.784;2023-03-01T06:47:40;102850.94;;;20.42;29.59
48848;BME280;36611;51.638;5.784;2023-03-01T06:50:07;102846.59;;;20.39;30.20
48848;BME280;36611;51.638;5.784;2023-03-01T06:52:34;102842.63;;;20.43;29.80
48848;BME280;36611;51.638;5.784;2023-03-01T06:55:01;102853.31;;;20.46;29.87
48848;BME280;36611;51.638;5.784;2023-03-01T06:57:28;102847.59;;;20.49;29.89
48848;BME280;36611;51.638;5.784;2023-03-01T06:59:55;102848.72;;;20.47;29.78
48848;BME280;36611;51.638;5.784;2023-03-01T07:02:22;102847.81;;;20.35;29.20
48848;BME280;36611;51.638;5.784;2023-03-01T07:04:52;102842.09;;;20.38;29.08
48848;BME280;36611;51.638;5.784;2023-03-01T07:07:19;102842.72;;;20.30;29.43
48848;BME280;36611;51.638;5.784;2023-03-01T07:09:46;102840.13;;;20.29;29.71
48848;BME280;36611;51.638;5.784;2023-03-01T07:12:14;102851.03;;;20.29;29.55
48848;BME280;36611;51.638;5.784;2023-03-01T07:14:41;102841.13;;;20.28;29.29
48848;BME280;36611;51.638;5.784;2023-03-01T07:17:10;102847.44;;;20.28;29.71
48848;BME280;36611;51.638;5.784;2023-03-01T07:19:36;102849.06;;;20.20;29.76
48848;BME280;36611;51.638;5.784;2023-03-01T07:22:03;102854.13;;;20.24;30.18
48848;BME280;36611;51.638;5.784;2023-03-01T07:24:30;102862.31;;;20.36;30.15
48848;BME280;36611;51.638;5.784;2023-03-01T07:26:57;102860.75;;;20.44;30.32
48848;BME280;36611;51.638;5.784;2023-03-01T07:29:23;102862.97;;;20.50;30.03
48848;BME280;36611;51.638;5.784;2023-03-01T07:31:50;102876.25;;;20.55;29.94
48848;BME280;36611;51.638;5.784;2023-03-01T07:34:17;102870.38;;;20.15;30.10
48848;BME280;36611;51.638;5.784;2023-03-01T07:36:46;102861.69;;;20.21;29.44
48848;BME280;36611;51.638;5.784;2023-03-01T07:39:12;102862.56;;;20.33;29.67
48848;BME280;36611;51.638;5.784;2023-03-01T07:41:40;102861.88;;;20.42;29.80
48848;BME280;36611;51.638;5.784;2023-03-01T07:44:06;102856.38;;;20.30;29.63
48848;BME280;36611;51.638;5.784;2023-03-01T07:46:33;102856.38;;;20.19;29.40
48848;BME280;36611;51.638;5.784;2023-03-01T07:49:00;102857.59;;;20.26;29.60
48848;BME280;36611;51.638;5.784;2023-03-01T07:51:26;102862.69;;;20.20;29.69
48848;BME280;36611;51.638;5.784;2023-03-01T07:53:55;102868.28;;;20.18;30.00
48848;BME280;36611;51.638;5.784;2023-03-01T07:56:22;102864.78;;;20.16;29.82
48848;BME280;36611;51.638;5.784;2023-03-01T07:58:49;102871.19;;;20.04;30.00
48848;BME280;36611;51.638;5.784;2023-03-01T08:01:18;102867.94;;;19.88;29.51
48848;BME280;36611;51.638;5.784;2023-03-01T08:03:48;102869.56;;;19.90;29.85
48848;BME280;36611;51.638;5.784;2023-03-01T08:06:16;102859.53;;;19.91;29.81
48848;BME280;36611;51.638;5.784;2023-03-01T08:08:44;102868.94;;;19.87;30.71
48848;BME280;36611;51.638;5.784;2023-03-01T08:11:14;102869.56;;;19.90;30.01
48848;BME280;36611;51.638;5.784;2023-03-01T08:13:42;102867.56;;;19.81;29.76
48848;BME280;36611;51.638;5.784;2023-03-01T08:16:17;102868.03;;;19.75;30.18
48848;BME280;36611;51.638;5.784;2023-03-01T08:18:43;102867.41;;;19.72;29.93
48848;BME280;36611;51.638;5.784;2023-03-01T08:21:13;102859.09;;;19.73;30.19
48848;BME280;36611;51.638;5.784;2023-03-01T08:23:40;102859.84;;;19.75;30.09
48848;BME280;36611;51.638;5.784;2023-03-01T08:26:18;102857.75;;;19.79;30.16
48848;BME280;36611;51.638;5.784;2023-03-01T08:28:47;102857.75;;;19.79;30.29
48848;BME280;36611;51.638;5.784;2023-03-01T08:31:20;102859.75;;;19.77;30.26
48848;BME280;36611;51.638;5.784;2023-03-01T08:33:48;102859.75;;;19.77;30.48
48848;BME280;36611;51.638;5.784;2023-03-01T08:36:18;102861.47;;;19.78;30.15
48848;BME280;36611;51.638;5.784;2023-03-01T08:38:44;102854.28;;;19.77;30.07
48848;BME280;36611;51.638;5.784;2023-03-01T08:41:12;102846.84;;;19.79;30.12
48848;BME280;36611;51.638;5.784;2023-03-01T08:43:41;102841.16;;;19.82;30.32
48848;BME280;36611;51.638;5.784;2023-03-01T08:46:08;102832.97;;;19.82;29.90
48848;BME280;36611;51.638;5.784;2023-03-01T08:48:35;102842.28;;;19.90;30.45
48848;BME280;36611;51.638;5.784;2023-03-01T08:51:15;102828.09;;;20.09;30.68
48848;BME280;36611;51.638;5.784;2023-03-01T08:53:42;102830.94;;;20.30;30.28
48848;BME280;36611;51.638;5.784;2023-03-01T08:56:10;102830.44;;;20.25;29.87
48848;BME280;36611;51.638;5.784;2023-03-01T08:58:37;102833.53;;;20.09;30.08
48848;BME280;36611;51.638;5.784;2023-03-01T09:01:10;102831.28;;;20.03;30.21
48848;BME280;36611;51.638;5.784;2023-03-01T09:03:37;102833.50;;;19.98;29.86
48848;BME280;36611;51.638;5.784;2023-03-01T09:06:14;102838.31;;;19.94;29.75
48848;BME280;36611;51.638;5.784;2023-03-01T09:08:43;102833.25;;;19.90;30.19
48848;BME280;36611;51.638;5.784;2023-03-01T09:11:13;102833.34;;;19.88;30.05
48848;BME280;36611;51.638;5.784;2023-03-01T09:13:41;102832.38;;;19.89;30.21
48848;BME280;36611;51.638;5.784;2023-03-01T09:16:21;102834.22;;;19.89;29.87
48848;BME280;36611;51.638;5.784;2023-03-01T09:18:50;102827.03;;;19.88;30.57
48848;BME280;36611;51.638;5.784;2023-03-01T09:21:23;102825.81;;;19.92;30.43
48848;BME280;36611;51.638;5.784;2023-03-01T09:24:11;102823.81;;;19.94;30.46
48848;BME280;36611;51.638;5.784;2023-03-01T09:26:39;102811.94;;;19.95;30.36
48848;BME280;36611;51.638;5.784;2023-03-01T09:29:07;102820.84;;;19.97;30.28
48848;BME280;36611;51.638;5.784;2023-03-01T09:31:36;102811.69;;;19.98;30.29
48848;BME280;36611;51.638;5.784;2023-03-01T09:34:04;102810.69;;;19.99;30.55
48848;BME280;36611;51.638;5.784;2023-03-01T09:36:31;102806.72;;;20.03;30.24
48848;BME280;36611;51.638;5.784;2023-03-01T09:39:01;102809.31;;;20.05;30.08
48848;BME280;36611;51.638;5.784;2023-03-01T09:41:49;102811.72;;;20.09;30.48
48848;BME280;36611;51.638;5.784;2023-03-01T09:44:29;102808.63;;;20.14;30.09
48848;BME280;36611;51.638;5.784;2023-03-01T09:46:58;102802.53;;;20.21;30.13
48848;BME280;36611;51.638;5.784;2023-03-01T09:49:28;102795.59;;;20.28;30.06
48848;BME280;36611;51.638;5.784;2023-03-01T09:52:06;102792.25;;;20.36;30.31
48848;BME280;36611;51.638;5.784;2023-03-01T09:54:49;102787.19;;;20.43;30.27
48848;BME280;36611;51.638;5.784;2023-03-01T10:00:28;102780.81;;;20.65;30.23
48848;BME280;36611;51.638;5.784;2023-03-01T10:03:24;102781.66;;;20.76;30.26
48848;BME280;36611;51.638;5.784;2023-03-01T10:05:59;102768.59;;;20.91;29.91
48848;BME280;36611;51.638;5.784;2023-03-01T10:08:34;102766.44;;;21.06;29.88
48848;BME280;36611;51.638;5.784;2023-03-01T10:11:27;102768.84;;;21.20;29.66
48848;BME280;36611;51.638;5.784;2023-03-01T10:14:01;102762.88;;;21.26;29.87
48848;BME280;36611;51.638;5.784;2023-03-01T10:19:11;102753.81;;;21.46;29.38
48848;BME280;36611;51.638;5.784;2023-03-01T10:21:43;102748.75;;;21.42;28.98
48848;BME280;36611;51.638;5.784;2023-03-01T10:24:16;102749.69;;;21.52;30.19
48848;BME280;36611;51.638;5.784;2023-03-01T10:29:21;102738.44;;;21.66;30.59
48848;BME280;36611;51.638;5.784;2023-03-01T10:31:51;102734.88;;;21.75;30.08
48848;BME280;36611;51.638;5.784;2023-03-01T10:36:50;102729.91;;;21.90;29.75
48848;BME280;36611;51.638;5.784;2023-03-01T10:39:20;102736.66;;;21.86;29.86
48848;BME280;36611;51.638;5.784;2023-03-01T10:42:18;102730.72;;;21.81;29.42
48848;BME280;36611;51.638;5.784;2023-03-01T10:44:47;102728.81;;;21.72;29.04
48848;BME280;36611;51.638;5.784;2023-03-01T10:49:58;102720.97;;;21.88;29.31
48848;BME280;36611;51.638;5.784;2023-03-01T10:52:34;102725.47;;;21.99;29.50
48848;BME280;36611;51.638;5.784;2023-03-01T10:55:24;102721.66;;;22.11;29.18
48848;BME280;36611;51.638;5.784;2023-03-01T11:03:23;102720.00;;;22.29;28.69
48848;BME280;36611;51.638;5.784;2023-03-01T11:08:35;102716.47;;;22.48;28.79
48848;BME280;36611;51.638;5.784;2023-03-01T11:13:36;102726.88;;;22.64;28.28
48848;BME280;36611;51.638;5.784;2023-03-01T11:16:07;102718.94;;;22.70;28.43
48848;BME280;36611;51.638;5.784;2023-03-01T11:18:38;102722.97;;;22.76;28.06
48848;BME280;36611;51.638;5.784;2023-03-01T11:21:15;102718.56;;;22.85;28.04
48848;BME280;36611;51.638;5.784;2023-03-01T11:23:45;102717.81;;;22.92;28.01
48848;BME280;36611;51.638;5.784;2023-03-01T11:26:14;102705.28;;;22.80;27.98
48848;BME280;36611;51.638;5.784;2023-03-01T11:28:42;102709.75;;;22.91;27.77
48848;BME280;36611;51.638;5.784;2023-03-01T11:31:15;102705.56;;;22.96;28.01
48848;BME280;36611;51.638;5.784;2023-03-01T11:33:56;102707.75;;;23.12;27.72
48848;BME280;36611;51.638;5.784;2023-03-01T11:36:44;102700.81;;;23.18;27.88
48848;BME280;36611;51.638;5.784;2023-03-01T11:39:28;102699.06;;;23.36;27.91
48848;BME280;36611;51.638;5.784;2023-03-01T11:42:14;102700.59;;;23.48;27.83
48848;BME280;36611;51.638;5.784;2023-03-01T11:44:47;102693.66;;;23.54;27.37
48848;BME280;36611;51.638;5.784;2023-03-01T11:50:24;102707.91;;;23.76;27.19
48848;BME280;36611;51.638;5.784;2023-03-01T11:58:14;102693.28;;;23.95;27.27
48848;BME280;36611;51.638;5.784;2023-03-01T12:03:28;102671.56;;;24.02;27.31
48848;BME280;36611;51.638;5.784;2023-03-01T12:26:34;102655.63;;;24.60;26.95
48848;BME280;36611;51.638;5.784;2023-03-01T12:39:32;102641.88;;;24.78;26.44
48848;BME280;36611;51.638;5.784;2023-03-01T12:42:18;102635.91;;;24.83;26.49
48848;BME280;36611;51.638;5.784;2023-03-01T12:44:55;102646.56;;;24.86;26.51
48848;BME280;36611;51.638;5.784;2023-03-01T12:50:16;102631.16;;;24.93;26.40
48848;BME280;36611;51.638;5.784;2023-03-01T12:52:49;102630.16;;;24.94;26.21
48848;BME280;36611;51.638;5.784;2023-03-01T12:55:39;102618.28;;;24.93;26.13
48848;BME280;36611;51.638;5.784;2023-03-01T12:58:33;102612.63;;;24.95;26.38
48848;BME280;36611;51.638;5.784;2023-03-01T13:01:39;102616.06;;;24.97;26.00
48848;BME280;36611;51.638;5.784;2023-03-01T13:07:36;102603.63;;;24.31;26.80
48848;BME280;36611;51.638;5.784;2023-03-01T13:13:22;102598.47;;;24.64;26.49
48848;BME280;36611;51.638;5.784;2023-03-01T13:15:49;102592.88;;;24.74;26.38
48848;BME280;36611;51.638;5.784;2023-03-01T13:20:53;102594.63;;;24.39;26.37
48848;BME280;36611;51.638;5.784;2023-03-01T13:31:04;102574.09;;;24.16;27.52
48848;BME280;36611;51.638;5.784;2023-03-01T13:36:00;102563.91;;;24.79;26.82
48848;BME280;36611;51.638;5.784;2023-03-01T13:46:47;102543.50;;;25.08;26.28
48848;BME280;36611;51.638;5.784;2023-03-01T13:49:18;102529.44;;;25.11;26.18
48848;BME280;36611;51.638;5.784;2023-03-01T13:51:49;102525.13;;;25.08;26.24
48848;BME280;36611;51.638;5.784;2023-03-01T13:54:24;102525.69;;;24.94;25.97
48848;BME280;36611;51.638;5.784;2023-03-01T13:56:51;102520.44;;;25.00;25.94
48848;BME280;36611;51.638;5.784;2023-03-01T13:59:21;102517.91;;;25.07;25.93
48848;BME280;36611;51.638;5.784;2023-03-01T14:01:59;102519.66;;;25.16;25.91
48848;BME280;36611;51.638;5.784;2023-03-01T14:04:32;102510.28;;;25.27;25.96
48848;BME280;36611;51.638;5.784;2023-03-01T14:07:31;102507.41;;;25.37;25.83
48848;BME280;36611;51.638;5.784;2023-03-01T14:10:01;102500.22;;;25.44;25.66
48848;BME280;36611;51.638;5.784;2023-03-01T14:12:46;102489.06;;;25.53;25.76
48848;BME280;36611;51.638;5.784;2023-03-01T14:15:35;102495.78;;;25.59;25.38
48848;BME280;36611;51.638;5.784;2023-03-01T14:18:19;102493.91;;;25.59;25.22
48848;BME280;36611;51.638;5.784;2023-03-01T14:20:48;102493.41;;;25.64;25.39
48848;BME280;36611;51.638;5.784;2023-03-01T14:23:20;102495.69;;;25.69;25.38
48848;BME280;36611;51.638;5.784;2023-03-01T14:25:49;102493.28;;;25.74;25.30
48848;BME280;36611;51.638;5.784;2023-03-01T14:30:51;102492.09;;;25.84;25.30
48848;BME280;36611;51.638;5.784;2023-03-01T14:35:56;102475.78;;;25.91;25.16
48848;BME280;36611;51.638;5.784;2023-03-01T14:41:01;102474.25;;;26.05;24.84
48848;BME280;36611;51.638;5.784;2023-03-01T14:43:32;102470.13;;;26.09;24.94
48848;BME280;36611;51.638;5.784;2023-03-01T14:45:59;102461.34;;;26.13;24.98
48848;BME280;36611;51.638;5.784;2023-03-01T14:48:28;102465.00;;;25.55;24.64
48848;BME280;36611;51.638;5.784;2023-03-01T14:50:55;102463.47;;;25.61;25.36
48848;BME280;36611;51.638;5.784;2023-03-01T14:53:28;102456.47;;;25.75;25.20
48848;BME280;36611;51.638;5.784;2023-03-01T14:56:03;102463.91;;;25.98;25.03
48848;BME280;36611;51.638;5.784;2023-03-01T14:58:32;102451.38;;;26.20;24.89
48848;BME280;36611;51.638;5.784;2023-03-01T15:01:01;102451.88;;;26.56;24.43
48848;BME280;36611;51.638;5.784;2023-03-01T15:03:41;102443.47;;;28.96;22.46
48848;BME280;36611;51.638;5.784;2023-03-01T15:06:14;102442.63;;;30.68;21.04